sensor_id;sensor_type;location;lat;lon;timestamp;temperature;humidity
12622;DHT22;6376;48.182;-1.644;2023-09-12T00:02:13;21.70;95.50
12622;DHT22;6376;48.182;-1.644;2023-09-12T00:04:39;21.70;95.50
12622;DHT22;6376;48.182;-1.644;2023-09-12T00:07:04;21.70;95.50
12622;DHT22;6376;48.182;-1.644;2023-09-12T00:09:30;21.70;95.50
12622;DHT22;6376;48.182;-1.644;2023-09-12T00:11:55;21.70;95.50
12622;DHT22;6376;48.182;-1.644;2023-09-12T00:14:21;21.60;95.50
12622;DHT22;6376;48.182;-1.644;2023-09-12T00:16:47;21.70;95.50
12622;DHT22;6376;48.182;-1.644;2023-09-12T00:19:12;21.70;95.80
12622;DHT22;6376;48.182;-1.644;2023-09-12T00:21:38;21.70;95.50
12622;DHT22;6376;48.182;-1.644;2023-09-12T00:24:04;21.70;95.50
12622;DHT22;6376;48.182;-1.644;2023-09-12T00:26:29;21.70;95.50
12622;DHT22;6376;48.182;-1.644;2023-09-12T00:28:56;21.70;95.50
12622;DHT22;6376;48.182;-1.644;2023-09-12T00:31:22;21.60;95.50
12622;DHT22;6376;48.182;-1.644;2023-09-12T00:33:47;21.60;95.50
12622;DHT22;6376;48.182;-1.644;2023-09-12T00:36:13;21.60;95.50
12622;DHT22;6376;48.182;-1.644;2023-09-12T00:38:39;21.60;95.50
12622;DHT22;6376;48.182;-1.644;2023-09-12T00:41:04;21.60;95.60
12622;DHT22;6376;48.182;-1.644;2023-09-12T00:43:30;21.60;95.60
12622;DHT22;6376;48.182;-1.644;2023-09-12T00:45:55;21.60;95.90
12622;DHT22;6376;48.182;-1.644;2023-09-12T00:48:21;21.60;95.60
12622;DHT22;6376;48.182;-1.644;2023-09-12T00:50:49;21.60;95.60
12622;DHT22;6376;48.182;-1.644;2023-09-12T00:53:16;21.60;95.60
12622;DHT22;6376;48.182;-1.644;2023-09-12T00:55:46;21.60;96.00
12622;DHT22;6376;48.182;-1.644;2023-09-12T00:58:13;21.60;95.60
12622;DHT22;6376;48.182;-1.644;2023-09-12T01:00:40;21.60;95.60
12622;DHT22;6376;48.182;-1.644;2023-09-12T01:03:07;21.60;95.60
12622;DHT22;6376;48.182;-1.644;2023-09-12T01:05:33;21.60;95.60
12622;DHT22;6376;48.182;-1.644;2023-09-12T01:07:59;21.60;95.60
12622;DHT22;6376;48.182;-1.644;2023-09-12T01:10:25;21.60;95.60
12622;DHT22;6376;48.182;-1.644;2023-09-12T01:12:52;21.60;95.60
12622;DHT22;6376;48.182;-1.644;2023-09-12T01:15:18;21.50;95.60
12622;DHT22;6376;48.182;-1.644;2023-09-12T01:17:45;21.50;96.00
12622;DHT22;6376;48.182;-1.644;2023-09-12T01:20:14;21.50;95.60
12622;DHT22;6376;48.182;-1.644;2023-09-12T01:28:19;21.50;95.60
12622;DHT22;6376;48.182;-1.644;2023-09-12T01:30:48;21.50;95.60
12622;DHT22;6376;48.182;-1.644;2023-09-12T01:33:15;21.50;95.70
12622;DHT22;6376;48.182;-1.644;2023-09-12T01:35:41;21.50;95.60
12622;DHT22;6376;48.182;-1.644;2023-09-12T01:38:06;21.50;95.70
12622;DHT22;6376;48.182;-1.644;2023-09-12T01:43:06;21.50;95.70
12622;DHT22;6376;48.182;-1.644;2023-09-12T01:45:33;21.50;95.70
12622;DHT22;6376;48.182;-1.644;2023-09-12T01:48:00;21.50;95.70
12622;DHT22;6376;48.182;-1.644;2023-09-12T01:50:27;21.50;95.70
12622;DHT22;6376;48.182;-1.644;2023-09-12T01:52:53;21.50;95.70
12622;DHT22;6376;48.182;-1.644;2023-09-12T01:55:20;21.50;95.70
12622;DHT22;6376;48.182;-1.644;2023-09-12T01:57:47;21.50;95.70
12622;DHT22;6376;48.182;-1.644;2023-09-12T02:00:13;21.40;95.70
12622;DHT22;6376;48.182;-1.644;2023-09-12T02:02:39;21.50;95.70
12622;DHT22;6376;48.182;-1.644;2023-09-12T02:05:22;21.50;95.70
12622;DHT22;6376;48.182;-1.644;2023-09-12T02:07:48;21.40;95.60
12622;DHT22;6376;48.182;-1.644;2023-09-12T02:10:15;21.40;95.70
12622;DHT22;6376;48.182;-1.644;2023-09-12T02:12:40;21.40;95.70
12622;DHT22;6376;48.182;-1.644;2023-09-12T02:15:07;21.40;95.70
12622;DHT22;6376;48.182;-1.644;2023-09-12T02:17:33;21.40;95.70
12622;DHT22;6376;48.182;-1.644;2023-09-12T02:19:58;21.40;95.70
12622;DHT22;6376;48.182;-1.644;2023-09-12T02:22:24;21.40;95.70
12622;DHT22;6376;48.182;-1.644;2023-09-12T02:24:50;21.40;95.70
12622;DHT22;6376;48.182;-1.644;2023-09-12T02:27:16;21.40;95.70
12622;DHT22;6376;48.182;-1.644;2023-09-12T02:29:42;21.40;95.70
12622;DHT22;6376;48.182;-1.644;2023-09-12T02:32:08;21.40;95.70
12622;DHT22;6376;48.182;-1.644;2023-09-12T02:34:33;21.40;95.70
12622;DHT22;6376;48.182;-1.644;2023-09-12T02:36:59;21.40;95.80
12622;DHT22;6376;48.182;-1.644;2023-09-12T02:39:25;21.40;95.80
12622;DHT22;6376;48.182;-1.644;2023-09-12T02:41:51;21.40;95.70
12622;DHT22;6376;48.182;-1.644;2023-09-12T02:44:16;21.40;95.70
12622;DHT22;6376;48.182;-1.644;2023-09-12T02:46:42;21.40;95.80
12622;DHT22;6376;48.182;-1.644;2023-09-12T02:49:08;21.40;95.80
12622;DHT22;6376;48.182;-1.644;2023-09-12T02:51:33;21.40;95.80
12622;DHT22;6376;48.182;-1.644;2023-09-12T02:53:59;21.30;95.80
12622;DHT22;6376;48.182;-1.644;2023-09-12T02:56:25;21.30;95.80
12622;DHT22;6376;48.182;-1.644;2023-09-12T02:58:50;21.40;95.80
12622;DHT22;6376;48.182;-1.644;2023-09-12T03:01:20;21.40;95.80
12622;DHT22;6376;48.182;-1.644;2023-09-12T03:03:46;21.30;95.80
12622;DHT22;6376;48.182;-1.644;2023-09-12T03:06:12;21.30;95.70
12622;DHT22;6376;48.182;-1.644;2023-09-12T03:08:39;21.30;95.70
12622;DHT22;6376;48.182;-1.644;2023-09-12T03:11:05;21.30;95.70
12622;DHT22;6376;48.182;-1.644;2023-09-12T03:13:33;21.30;95.70
12622;DHT22;6376;48.182;-1.644;2023-09-12T03:15:59;21.30;95.70
12622;DHT22;6376;48.182;-1.644;2023-09-12T03:18:25;21.30;95.70
12622;DHT22;6376;48.182;-1.644;2023-09-12T03:20:51;21.30;95.70
12622;DHT22;6376;48.182;-1.644;2023-09-12T03:23:16;21.30;95.70
12622;DHT22;6376;48.182;-1.644;2023-09-12T03:25:42;21.30;95.80
12622;DHT22;6376;48.182;-1.644;2023-09-12T03:28:08;21.30;95.80
12622;DHT22;6376;48.182;-1.644;2023-09-12T03:30:34;21.30;95.70
12622;DHT22;6376;48.182;-1.644;2023-09-12T03:33:00;21.30;95.70
12622;DHT22;6376;48.182;-1.644;2023-09-12T03:35:27;21.30;95.70
12622;DHT22;6376;48.182;-1.644;2023-09-12T03:37:53;21.30;95.70
12622;DHT22;6376;48.182;-1.644;2023-09-12T03:40:19;21.30;95.70
12622;DHT22;6376;48.182;-1.644;2023-09-12T03:42:45;21.30;95.70
12622;DHT22;6376;48.182;-1.644;2023-09-12T03:45:11;21.30;95.70
12622;DHT22;6376;48.182;-1.644;2023-09-12T03:47:37;21.30;95.70
12622;DHT22;6376;48.182;-1.644;2023-09-12T03:50:03;21.30;95.70
12622;DHT22;6376;48.182;-1.644;2023-09-12T03:52:29;21.30;95.70
12622;DHT22;6376;48.182;-1.644;2023-09-12T03:54:55;21.30;95.70
12622;DHT22;6376;48.182;-1.644;2023-09-12T03:57:20;21.30;95.70
12622;DHT22;6376;48.182;-1.644;2023-09-12T03:59:46;21.30;95.70
12622;DHT22;6376;48.182;-1.644;2023-09-12T04:02:12;21.30;95.70
12622;DHT22;6376;48.182;-1.644;2023-09-12T04:04:38;21.30;95.80
12622;DHT22;6376;48.182;-1.644;2023-09-12T04:07:04;21.30;95.70
12622;DHT22;6376;48.182;-1.644;2023-09-12T04:09:30;21.30;95.80
12622;DHT22;6376;48.182;-1.644;2023-09-12T04:11:56;21.30;95.80
12622;DHT22;6376;48.182;-1.644;2023-09-12T04:14:21;21.20;95.80
12622;DHT22;6376;48.182;-1.644;2023-09-12T04:16:47;21.30;95.80
12622;DHT22;6376;48.182;-1.644;2023-09-12T04:19:16;21.30;95.80
12622;DHT22;6376;48.182;-1.644;2023-09-12T04:21:42;21.30;95.80
12622;DHT22;6376;48.182;-1.644;2023-09-12T04:24:08;21.30;95.80
12622;DHT22;6376;48.182;-1.644;2023-09-12T04:26:33;21.30;95.80
12622;DHT22;6376;48.182;-1.644;2023-09-12T04:28:59;21.30;95.70
12622;DHT22;6376;48.182;-1.644;2023-09-12T04:31:25;21.20;95.70
12622;DHT22;6376;48.182;-1.644;2023-09-12T04:33:52;21.20;95.70
12622;DHT22;6376;48.182;-1.644;2023-09-12T04:36:18;21.20;95.70
12622;DHT22;6376;48.182;-1.644;2023-09-12T04:38:44;21.20;95.70
12622;DHT22;6376;48.182;-1.644;2023-09-12T04:41:12;21.20;95.70
12622;DHT22;6376;48.182;-1.644;2023-09-12T04:43:41;21.20;95.70
12622;DHT22;6376;48.182;-1.644;2023-09-12T04:46:06;21.20;95.70
12622;DHT22;6376;48.182;-1.644;2023-09-12T04:48:32;21.20;95.70
12622;DHT22;6376;48.182;-1.644;2023-09-12T04:50:58;21.20;95.70
12622;DHT22;6376;48.182;-1.644;2023-09-12T04:53:23;21.20;95.70
12622;DHT22;6376;48.182;-1.644;2023-09-12T04:55:52;21.20;95.70
12622;DHT22;6376;48.182;-1.644;2023-09-12T04:58:18;21.20;95.70
12622;DHT22;6376;48.182;-1.644;2023-09-12T05:00:45;21.20;95.70
12622;DHT22;6376;48.182;-1.644;2023-09-12T05:03:10;21.20;95.80
12622;DHT22;6376;48.182;-1.644;2023-09-12T05:05:36;21.20;95.80
12622;DHT22;6376;48.182;-1.644;2023-09-12T05:08:02;21.20;95.80
12622;DHT22;6376;48.182;-1.644;2023-09-12T05:10:28;21.20;95.80
12622;DHT22;6376;48.182;-1.644;2023-09-12T05:12:53;21.20;95.80
12622;DHT22;6376;48.182;-1.644;2023-09-12T05:15:19;21.20;95.80
12622;DHT22;6376;48.182;-1.644;2023-09-12T05:17:44;21.20;95.80
12622;DHT22;6376;48.182;-1.644;2023-09-12T05:20:10;21.20;95.80
12622;DHT22;6376;48.182;-1.644;2023-09-12T05:22:36;21.20;95.80
12622;DHT22;6376;48.182;-1.644;2023-09-12T05:25:01;21.20;95.80
12622;DHT22;6376;48.182;-1.644;2023-09-12T05:27:27;21.20;95.80
12622;DHT22;6376;48.182;-1.644;2023-09-12T05:29:53;21.20;95.80
12622;DHT22;6376;48.182;-1.644;2023-09-12T05:32:18;21.20;95.80
12622;DHT22;6376;48.182;-1.644;2023-09-12T05:34:44;21.20;95.80
12622;DHT22;6376;48.182;-1.644;2023-09-12T05:37:10;21.20;95.80
12622;DHT22;6376;48.182;-1.644;2023-09-12T05:39:36;21.20;95.80
12622;DHT22;6376;48.182;-1.644;2023-09-12T05:42:02;21.20;95.80
12622;DHT22;6376;48.182;-1.644;2023-09-12T05:44:27;21.20;95.80
12622;DHT22;6376;48.182;-1.644;2023-09-12T05:46:53;21.20;95.80
12622;DHT22;6376;48.182;-1.644;2023-09-12T05:49:19;21.10;95.80
12622;DHT22;6376;48.182;-1.644;2023-09-12T05:51:45;21.20;96.00
12622;DHT22;6376;48.182;-1.644;2023-09-12T05:54:11;21.20;95.90
12622;DHT22;6376;48.182;-1.644;2023-09-12T05:56:39;21.10;95.80
12622;DHT22;6376;48.182;-1.644;2023-09-12T05:59:06;21.20;95.80
12622;DHT22;6376;48.182;-1.644;2023-09-12T06:01:31;21.10;95.80
12622;DHT22;6376;48.182;-1.644;2023-09-12T06:03:57;21.10;95.80
12622;DHT22;6376;48.182;-1.644;2023-09-12T06:06:23;21.10;95.80
12622;DHT22;6376;48.182;-1.644;2023-09-12T06:08:48;21.10;95.80
12622;DHT22;6376;48.182;-1.644;2023-09-12T06:11:14;21.10;95.80
12622;DHT22;6376;48.182;-1.644;2023-09-12T06:13:40;21.10;95.80
12622;DHT22;6376;48.182;-1.644;2023-09-12T06:16:06;21.10;95.80
12622;DHT22;6376;48.182;-1.644;2023-09-12T06:18:32;21.10;95.80
12622;DHT22;6376;48.182;-1.644;2023-09-12T06:20:58;21.10;95.80
12622;DHT22;6376;48.182;-1.644;2023-09-12T06:23:24;21.10;95.80
12622;DHT22;6376;48.182;-1.644;2023-09-12T06:25:50;21.10;95.80
12622;DHT22;6376;48.182;-1.644;2023-09-12T06:28:29;21.10;95.80
12622;DHT22;6376;48.182;-1.644;2023-09-12T06:30:56;21.10;95.80
12622;DHT22;6376;48.182;-1.644;2023-09-12T06:33:25;21.10;95.80
12622;DHT22;6376;48.182;-1.644;2023-09-12T06:35:52;21.10;95.80
12622;DHT22;6376;48.182;-1.644;2023-09-12T06:38:22;21.10;95.80
12622;DHT22;6376;48.182;-1.644;2023-09-12T06:40:48;21.10;95.80
12622;DHT22;6376;48.182;-1.644;2023-09-12T06:43:14;21.10;95.80
12622;DHT22;6376;48.182;-1.644;2023-09-12T06:45:41;21.10;95.80
12622;DHT22;6376;48.182;-1.644;2023-09-12T06:48:06;21.10;95.80
12622;DHT22;6376;48.182;-1.644;2023-09-12T06:50:32;21.10;95.80
12622;DHT22;6376;48.182;-1.644;2023-09-12T06:52:58;21.10;95.80
12622;DHT22;6376;48.182;-1.644;2023-09-12T06:55:24;21.10;95.80
12622;DHT22;6376;48.182;-1.644;2023-09-12T06:57:50;21.10;95.80
12622;DHT22;6376;48.182;-1.644;2023-09-12T07:00:15;21.10;95.80
12622;DHT22;6376;48.182;-1.644;2023-09-12T07:02:42;21.10;95.80
12622;DHT22;6376;48.182;-1.644;2023-09-12T07:05:08;21.10;95.80
12622;DHT22;6376;48.182;-1.644;2023-09-12T07:07:34;21.10;95.80
12622;DHT22;6376;48.182;-1.644;2023-09-12T07:09:59;21.10;95.80
12622;DHT22;6376;48.182;-1.644;2023-09-12T07:12:26;21.10;95.80
12622;DHT22;6376;48.182;-1.644;2023-09-12T07:14:53;21.10;95.80
12622;DHT22;6376;48.182;-1.644;2023-09-12T07:17:19;21.10;95.80
12622;DHT22;6376;48.182;-1.644;2023-09-12T07:19:44;21.10;95.80
12622;DHT22;6376;48.182;-1.644;2023-09-12T07:22:10;21.10;95.80
12622;DHT22;6376;48.182;-1.644;2023-09-12T07:24:36;21.10;96.10
12622;DHT22;6376;48.182;-1.644;2023-09-12T07:27:01;21.10;95.80
12622;DHT22;6376;48.182;-1.644;2023-09-12T07:29:27;21.10;95.80
12622;DHT22;6376;48.182;-1.644;2023-09-12T07:31:53;21.10;95.80
12622;DHT22;6376;48.182;-1.644;2023-09-12T07:34:20;21.10;95.80
12622;DHT22;6376;48.182;-1.644;2023-09-12T07:36:46;21.10;95.80
12622;DHT22;6376;48.182;-1.644;2023-09-12T07:39:12;21.10;95.80
12622;DHT22;6376;48.182;-1.644;2023-09-12T07:41:38;21.10;95.80
12622;DHT22;6376;48.182;-1.644;2023-09-12T07:44:04;21.10;95.80
12622;DHT22;6376;48.182;-1.644;2023-09-12T07:46:30;21.10;95.80
12622;DHT22;6376;48.182;-1.644;2023-09-12T07:48:56;21.10;95.80
12622;DHT22;6376;48.182;-1.644;2023-09-12T07:51:23;21.10;95.80
12622;DHT22;6376;48.182;-1.644;2023-09-12T07:53:48;21.10;95.80
12622;DHT22;6376;48.182;-1.644;2023-09-12T07:56:14;21.10;95.80
12622;DHT22;6376;48.182;-1.644;2023-09-12T07:58:40;21.10;95.80
12622;DHT22;6376;48.182;-1.644;2023-09-12T08:01:07;21.10;95.80
12622;DHT22;6376;48.182;-1.644;2023-09-12T08:03:35;21.10;95.80
12622;DHT22;6376;48.182;-1.644;2023-09-12T08:06:02;21.10;95.80
12622;DHT22;6376;48.182;-1.644;2023-09-12T08:08:28;21.10;95.80
12622;DHT22;6376;48.182;-1.644;2023-09-12T08:10:54;21.10;95.80
12622;DHT22;6376;48.182;-1.644;2023-09-12T08:13:20;21.10;95.80
12622;DHT22;6376;48.182;-1.644;2023-09-12T08:15:45;21.10;95.80
12622;DHT22;6376;48.182;-1.644;2023-09-12T08:18:11;21.10;95.70
12622;DHT22;6376;48.182;-1.644;2023-09-12T08:20:37;21.10;95.70
12622;DHT22;6376;48.182;-1.644;2023-09-12T08:23:03;21.10;95.60
12622;DHT22;6376;48.182;-1.644;2023-09-12T08:25:29;21.20;95.60
12622;DHT22;6376;48.182;-1.644;2023-09-12T08:27:55;21.20;95.50
12622;DHT22;6376;48.182;-1.644;2023-09-12T08:30:21;21.20;95.50
12622;DHT22;6376;48.182;-1.644;2023-09-12T08:32:47;21.30;95.40
12622;DHT22;6376;48.182;-1.644;2023-09-12T08:35:13;21.50;95.00
12622;DHT22;6376;48.182;-1.644;2023-09-12T08:37:40;21.70;94.30
12622;DHT22;6376;48.182;-1.644;2023-09-12T08:40:07;21.90;94.00
12622;DHT22;6376;48.182;-1.644;2023-09-12T08:42:44;21.80;94.00
12622;DHT22;6376;48.182;-1.644;2023-09-12T08:45:17;22.00;93.60
12622;DHT22;6376;48.182;-1.644;2023-09-12T08:48:01;22.00;93.40
12622;DHT22;6376;48.182;-1.644;2023-09-12T08:50:29;21.80;93.90
12622;DHT22;6376;48.182;-1.644;2023-09-12T08:52:59;21.70;94.30
12622;DHT22;6376;48.182;-1.644;2023-09-12T08:55:25;21.60;94.50
12622;DHT22;6376;48.182;-1.644;2023-09-12T08:57:52;21.50;94.60
12622;DHT22;6376;48.182;-1.644;2023-09-12T09:00:20;21.80;94.00
12622;DHT22;6376;48.182;-1.644;2023-09-12T09:02:46;21.90;93.80
12622;DHT22;6376;48.182;-1.644;2023-09-12T09:05:13;21.80;94.20
12622;DHT22;6376;48.182;-1.644;2023-09-12T09:07:40;21.60;94.30
12622;DHT22;6376;48.182;-1.644;2023-09-12T09:10:10;21.60;94.40
12622;DHT22;6376;48.182;-1.644;2023-09-12T09:12:37;21.60;94.50
12622;DHT22;6376;48.182;-1.644;2023-09-12T09:15:40;21.60;94.50
12622;DHT22;6376;48.182;-1.644;2023-09-12T09:18:06;21.60;94.50
12622;DHT22;6376;48.182;-1.644;2023-09-12T09:20:33;21.60;94.70
12622;DHT22;6376;48.182;-1.644;2023-09-12T09:23:09;21.70;94.40
12622;DHT22;6376;48.182;-1.644;2023-09-12T09:25:39;21.70;94.30
12622;DHT22;6376;48.182;-1.644;2023-09-12T09:28:15;21.70;94.30
12622;DHT22;6376;48.182;-1.644;2023-09-12T09:30:46;21.80;94.20
12622;DHT22;6376;48.182;-1.644;2023-09-12T09:33:12;22.00;93.90
12622;DHT22;6376;48.182;-1.644;2023-09-12T09:35:41;22.00;94.10
12622;DHT22;6376;48.182;-1.644;2023-09-12T09:38:07;22.10;93.80
12622;DHT22;6376;48.182;-1.644;2023-09-12T09:40:33;22.10;93.70
12622;DHT22;6376;48.182;-1.644;2023-09-12T09:43:00;22.10;93.60
12622;DHT22;6376;48.182;-1.644;2023-09-12T09:45:28;22.10;93.60
12622;DHT22;6376;48.182;-1.644;2023-09-12T09:47:57;22.10;93.50
12622;DHT22;6376;48.182;-1.644;2023-09-12T09:50:24;22.10;93.60
12622;DHT22;6376;48.182;-1.644;2023-09-12T09:52:54;22.00;93.60
12622;DHT22;6376;48.182;-1.644;2023-09-12T09:55:21;22.00;94.00
12622;DHT22;6376;48.182;-1.644;2023-09-12T09:57:46;22.00;93.70
12622;DHT22;6376;48.182;-1.644;2023-09-12T10:00:13;22.10;93.80
12622;DHT22;6376;48.182;-1.644;2023-09-12T10:02:40;22.00;93.60
12622;DHT22;6376;48.182;-1.644;2023-09-12T10:05:09;22.00;93.60
12622;DHT22;6376;48.182;-1.644;2023-09-12T10:07:37;22.00;93.70
12622;DHT22;6376;48.182;-1.644;2023-09-12T10:10:04;22.00;93.70
12622;DHT22;6376;48.182;-1.644;2023-09-12T10:12:36;22.00;93.70
12622;DHT22;6376;48.182;-1.644;2023-09-12T10:15:03;22.00;93.70
12622;DHT22;6376;48.182;-1.644;2023-09-12T10:17:36;22.00;93.70
12622;DHT22;6376;48.182;-1.644;2023-09-12T10:20:10;22.00;93.70
12622;DHT22;6376;48.182;-1.644;2023-09-12T10:22:55;22.00;93.70
12622;DHT22;6376;48.182;-1.644;2023-09-12T10:25:23;22.00;93.50
12622;DHT22;6376;48.182;-1.644;2023-09-12T10:27:49;22.00;93.50
12622;DHT22;6376;48.182;-1.644;2023-09-12T10:30:16;22.00;93.50
12622;DHT22;6376;48.182;-1.644;2023-09-12T10:32:45;22.00;93.50
12622;DHT22;6376;48.182;-1.644;2023-09-12T10:35:12;22.10;93.40
12622;DHT22;6376;48.182;-1.644;2023-09-12T10:37:41;22.10;93.40
12622;DHT22;6376;48.182;-1.644;2023-09-12T10:40:11;22.20;93.10
12622;DHT22;6376;48.182;-1.644;2023-09-12T10:42:39;22.30;92.80
12622;DHT22;6376;48.182;-1.644;2023-09-12T10:45:06;22.40;92.50
12622;DHT22;6376;48.182;-1.644;2023-09-12T10:47:35;22.50;92.30
12622;DHT22;6376;48.182;-1.644;2023-09-12T10:50:01;22.50;92.20
12622;DHT22;6376;48.182;-1.644;2023-09-12T10:52:28;22.60;92.20
12622;DHT22;6376;48.182;-1.644;2023-09-12T10:54:55;22.70;92.00
12622;DHT22;6376;48.182;-1.644;2023-09-12T10:57:21;22.70;91.80
12622;DHT22;6376;48.182;-1.644;2023-09-12T11:02:34;22.70;91.90
12622;DHT22;6376;48.182;-1.644;2023-09-12T11:05:02;22.50;92.10
12622;DHT22;6376;48.182;-1.644;2023-09-12T11:12:44;22.40;92.60
12622;DHT22;6376;48.182;-1.644;2023-09-12T11:15:10;22.40;92.70
12622;DHT22;6376;48.182;-1.644;2023-09-12T11:17:40;22.40;92.60
12622;DHT22;6376;48.182;-1.644;2023-09-12T11:20:06;22.50;92.40
12622;DHT22;6376;48.182;-1.644;2023-09-12T11:22:43;22.40;92.50
12622;DHT22;6376;48.182;-1.644;2023-09-12T11:25:18;22.40;92.50
12622;DHT22;6376;48.182;-1.644;2023-09-12T11:27:45;22.40;92.60
12622;DHT22;6376;48.182;-1.644;2023-09-12T11:30:12;22.40;92.50
12622;DHT22;6376;48.182;-1.644;2023-09-12T11:32:37;22.40;92.50
12622;DHT22;6376;48.182;-1.644;2023-09-12T11:35:07;22.40;92.60
12622;DHT22;6376;48.182;-1.644;2023-09-12T11:37:33;22.40;92.70
12622;DHT22;6376;48.182;-1.644;2023-09-12T11:40:15;22.30;92.70
12622;DHT22;6376;48.182;-1.644;2023-09-12T11:42:42;22.30;92.70
12622;DHT22;6376;48.182;-1.644;2023-09-12T11:45:09;22.30;92.80
12622;DHT22;6376;48.182;-1.644;2023-09-12T11:47:40;22.30;92.80
12622;DHT22;6376;48.182;-1.644;2023-09-12T11:50:06;22.30;92.80
12622;DHT22;6376;48.182;-1.644;2023-09-12T11:52:36;22.30;92.80
12622;DHT22;6376;48.182;-1.644;2023-09-12T11:55:03;22.30;92.90
12622;DHT22;6376;48.182;-1.644;2023-09-12T11:57:29;22.30;92.80
12622;DHT22;6376;48.182;-1.644;2023-09-12T11:59:56;22.30;92.80
12622;DHT22;6376;48.182;-1.644;2023-09-12T12:02:22;22.30;92.80
12622;DHT22;6376;48.182;-1.644;2023-09-12T12:04:49;22.30;92.80
12622;DHT22;6376;48.182;-1.644;2023-09-12T12:07:15;22.30;92.80
12622;DHT22;6376;48.182;-1.644;2023-09-12T12:09:41;22.30;92.70
12622;DHT22;6376;48.182;-1.644;2023-09-12T12:12:12;22.40;92.70
12622;DHT22;6376;48.182;-1.644;2023-09-12T12:14:39;22.40;92.70
12622;DHT22;6376;48.182;-1.644;2023-09-12T12:17:07;22.30;92.70
12622;DHT22;6376;48.182;-1.644;2023-09-12T12:19:33;22.40;92.70
12622;DHT22;6376;48.182;-1.644;2023-09-12T12:21:59;22.30;92.70
12622;DHT22;6376;48.182;-1.644;2023-09-12T12:24:25;22.30;92.70
12622;DHT22;6376;48.182;-1.644;2023-09-12T12:26:50;22.30;92.70
12622;DHT22;6376;48.182;-1.644;2023-09-12T12:29:18;22.30;92.70
12622;DHT22;6376;48.182;-1.644;2023-09-12T12:31:44;22.30;92.70
12622;DHT22;6376;48.182;-1.644;2023-09-12T12:34:09;22.30;92.70
12622;DHT22;6376;48.182;-1.644;2023-09-12T12:36:41;22.30;92.80
12622;DHT22;6376;48.182;-1.644;2023-09-12T12:39:10;22.30;92.80
12622;DHT22;6376;48.182;-1.644;2023-09-12T12:41:37;22.30;92.80
12622;DHT22;6376;48.182;-1.644;2023-09-12T12:44:03;22.30;92.70
12622;DHT22;6376;48.182;-1.644;2023-09-12T12:46:30;22.30;92.80
12622;DHT22;6376;48.182;-1.644;2023-09-12T12:48:56;22.30;92.80
12622;DHT22;6376;48.182;-1.644;2023-09-12T12:51:23;22.30;92.80
12622;DHT22;6376;48.182;-1.644;2023-09-12T12:53:54;22.30;92.70
12622;DHT22;6376;48.182;-1.644;2023-09-12T12:56:28;22.30;92.80
12622;DHT22;6376;48.182;-1.644;2023-09-12T12:58:56;22.30;92.80
12622;DHT22;6376;48.182;-1.644;2023-09-12T13:01:23;22.30;92.80
12622;DHT22;6376;48.182;-1.644;2023-09-12T13:03:49;22.30;92.80
12622;DHT22;6376;48.182;-1.644;2023-09-12T13:06:16;22.30;92.80
12622;DHT22;6376;48.182;-1.644;2023-09-12T13:08:44;22.30;92.80
12622;DHT22;6376;48.182;-1.644;2023-09-12T13:11:11;22.30;92.80
12622;DHT22;6376;48.182;-1.644;2023-09-12T13:13:38;22.30;92.80
12622;DHT22;6376;48.182;-1.644;2023-09-12T13:16:05;22.30;92.80
12622;DHT22;6376;48.182;-1.644;2023-09-12T13:18:34;22.30;92.70
12622;DHT22;6376;48.182;-1.644;2023-09-12T13:21:00;22.30;92.70
12622;DHT22;6376;48.182;-1.644;2023-09-12T13:23:26;22.40;92.70
12622;DHT22;6376;48.182;-1.644;2023-09-12T13:25:52;22.40;92.70
12622;DHT22;6376;48.182;-1.644;2023-09-12T13:28:17;22.40;92.70
12622;DHT22;6376;48.182;-1.644;2023-09-12T13:30:44;22.30;92.70
12622;DHT22;6376;48.182;-1.644;2023-09-12T13:33:13;22.30;92.70
12622;DHT22;6376;48.182;-1.644;2023-09-12T13:35:41;22.30;92.70
12622;DHT22;6376;48.182;-1.644;2023-09-12T13:38:07;22.30;92.70
12622;DHT22;6376;48.182;-1.644;2023-09-12T13:40:36;22.30;92.70
12622;DHT22;6376;48.182;-1.644;2023-09-12T13:43:03;22.30;92.80
12622;DHT22;6376;48.182;-1.644;2023-09-12T13:45:29;22.30;92.80
12622;DHT22;6376;48.182;-1.644;2023-09-12T13:47:55;22.30;92.80
12622;DHT22;6376;48.182;-1.644;2023-09-12T13:50:20;22.30;92.90
12622;DHT22;6376;48.182;-1.644;2023-09-12T13:52:46;22.30;92.90
12622;DHT22;6376;48.182;-1.644;2023-09-12T13:55:12;22.30;92.80
12622;DHT22;6376;48.182;-1.644;2023-09-12T13:57:41;22.30;92.80
12622;DHT22;6376;48.182;-1.644;2023-09-12T14:00:07;22.30;92.80
12622;DHT22;6376;48.182;-1.644;2023-09-12T14:02:33;22.30;92.80
12622;DHT22;6376;48.182;-1.644;2023-09-12T14:04:59;22.30;92.80
12622;DHT22;6376;48.182;-1.644;2023-09-12T14:07:26;22.30;92.80
12622;DHT22;6376;48.182;-1.644;2023-09-12T14:09:51;22.30;92.80
12622;DHT22;6376;48.182;-1.644;2023-09-12T14:12:24;22.30;92.70
12622;DHT22;6376;48.182;-1.644;2023-09-12T14:14:51;22.40;92.60
12622;DHT22;6376;48.182;-1.644;2023-09-12T14:17:17;22.40;92.70
12622;DHT22;6376;48.182;-1.644;2023-09-12T14:19:43;22.30;92.70
12622;DHT22;6376;48.182;-1.644;2023-09-12T14:22:09;22.30;92.70
12622;DHT22;6376;48.182;-1.644;2023-09-12T14:24:34;22.30;92.70
12622;DHT22;6376;48.182;-1.644;2023-09-12T14:27:00;22.30;92.70
12622;DHT22;6376;48.182;-1.644;2023-09-12T14:29:26;22.30;92.70
12622;DHT22;6376;48.182;-1.644;2023-09-12T14:31:55;22.30;92.70
12622;DHT22;6376;48.182;-1.644;2023-09-12T14:34:26;22.30;92.80
12622;DHT22;6376;48.182;-1.644;2023-09-12T14:36:54;22.40;93.10
12622;DHT22;6376;48.182;-1.644;2023-09-12T14:39:21;22.30;92.70
12622;DHT22;6376;48.182;-1.644;2023-09-12T14:41:46;22.40;92.70
12622;DHT22;6376;48.182;-1.644;2023-09-12T14:44:25;22.30;92.70
12622;DHT22;6376;48.182;-1.644;2023-09-12T14:46:51;22.30;92.70
12622;DHT22;6376;48.182;-1.644;2023-09-12T14:49:17;22.40;92.70
12622;DHT22;6376;48.182;-1.644;2023-09-12T14:51:43;22.40;92.70
12622;DHT22;6376;48.182;-1.644;2023-09-12T14:54:09;22.30;92.60
12622;DHT22;6376;48.182;-1.644;2023-09-12T14:56:34;22.30;92.70
12622;DHT22;6376;48.182;-1.644;2023-09-12T14:59:01;22.30;92.70
12622;DHT22;6376;48.182;-1.644;2023-09-12T15:01:27;22.30;92.70
12622;DHT22;6376;48.182;-1.644;2023-09-12T15:03:53;22.30;92.70
12622;DHT22;6376;48.182;-1.644;2023-09-12T15:06:19;22.30;92.70
12622;DHT22;6376;48.182;-1.644;2023-09-12T15:08:45;22.30;92.70
12622;DHT22;6376;48.182;-1.644;2023-09-12T15:11:11;22.30;92.70
12622;DHT22;6376;48.182;-1.644;2023-09-12T15:13:37;22.30;92.70
12622;DHT22;6376;48.182;-1.644;2023-09-12T15:16:04;22.30;92.70
12622;DHT22;6376;48.182;-1.644;2023-09-12T15:18:30;22.30;92.70
12622;DHT22;6376;48.182;-1.644;2023-09-12T15:20:57;22.30;92.60
12622;DHT22;6376;48.182;-1.644;2023-09-12T15:23:23;22.30;92.70
12622;DHT22;6376;48.182;-1.644;2023-09-12T15:25:52;22.30;92.70
12622;DHT22;6376;48.182;-1.644;2023-09-12T15:28:18;22.30;92.70
12622;DHT22;6376;48.182;-1.644;2023-09-12T15:30:44;22.30;92.70
12622;DHT22;6376;48.182;-1.644;2023-09-12T15:33:10;22.30;92.70
12622;DHT22;6376;48.182;-1.644;2023-09-12T15:35:36;22.30;92.60
12622;DHT22;6376;48.182;-1.644;2023-09-12T15:38:02;22.30;92.60
12622;DHT22;6376;48.182;-1.644;2023-09-12T15:40:28;22.30;92.60
12622;DHT22;6376;48.182;-1.644;2023-09-12T15:42:53;22.30;92.70
12622;DHT22;6376;48.182;-1.644;2023-09-12T15:45:19;22.30;92.70